createdAt,value
2019-02-10T00:03:20.593Z,63.40
2019-02-10T00:07:24.044Z,63.47
2019-02-10T00:11:27.499Z,63.59
2019-02-10T00:15:30.956Z,63.43
2019-02-10T00:19:34.404Z,63.33
2019-02-10T00:23:37.864Z,63.13
2019-02-10T00:27:41.319Z,62.91
2019-02-10T00:31:44.788Z,62.70
2019-02-10T00:35:48.229Z,62.50
2019-02-10T00:39:51.690Z,62.57
2019-02-10T00:43:55.144Z,62.57
2019-02-10T00:47:58.614Z,62.38
2019-02-10T00:52:02.082Z,62.34
2019-02-10T00:56:05.527Z,62.33
2019-02-10T01:00:08.988Z,62.39
2019-02-10T01:04:12.447Z,62.55
2019-02-10T01:08:15.903Z,62.72
2019-02-10T01:12:19.636Z,62.83
2019-02-10T01:16:23.079Z,62.76
2019-02-10T01:20:26.538Z,62.86
2019-02-10T01:24:29.993Z,62.65
2019-02-10T01:28:33.454Z,62.57
2019-02-10T01:32:36.914Z,62.41
2019-02-10T01:36:40.375Z,62.34
2019-02-10T01:40:43.819Z,62.31
2019-02-10T01:44:47.272Z,62.25
2019-02-10T01:48:50.730Z,62.22
2019-02-10T01:52:54.186Z,61.95
2019-02-10T01:56:57.640Z,61.81
2019-02-10T02:01:01.097Z,62.05
2019-02-10T02:05:05.322Z,62.66
2019-02-10T02:09:10.445Z,63.16
2019-02-10T02:13:13.897Z,62.69
2019-02-10T02:17:17.361Z,62.73
2019-02-10T02:21:20.825Z,63.01
2019-02-10T02:25:24.279Z,63.18
2019-02-10T02:29:27.738Z,63.43
2019-02-10T02:33:31.181Z,63.68
2019-02-10T02:37:34.638Z,63.87
2019-02-10T02:41:38.093Z,64.07
2019-02-10T02:45:41.549Z,63.97
2019-02-10T02:49:45.044Z,64.09
2019-02-10T02:53:48.461Z,63.98
2019-02-10T02:57:51.943Z,63.88
2019-02-10T03:01:55.369Z,64.55
2019-02-10T03:05:58.832Z,64.95
2019-02-10T03:10:02.293Z,64.92
2019-02-10T03:14:08.456Z,65.05
2019-02-10T03:18:11.916Z,64.85
2019-02-10T03:22:15.373Z,64.31
2019-02-10T03:26:18.831Z,63.66
2019-02-10T03:30:22.293Z,63.08
2019-02-10T03:34:25.745Z,62.70
2019-02-10T03:38:29.194Z,62.58
2019-02-10T03:42:32.647Z,62.65
2019-02-10T03:46:36.109Z,63.16
2019-02-10T03:50:39.576Z,63.48
2019-02-10T03:54:43.042Z,63.88
2019-02-10T03:58:46.485Z,64.25
2019-02-10T04:02:49.941Z,64.42
2019-02-10T04:06:53.395Z,64.57
2019-02-10T04:10:56.855Z,65.12
2019-02-10T04:15:00.319Z,65.70
2019-02-10T04:19:03.758Z,66.65
2019-02-10T04:23:08.687Z,67.02
2019-02-10T04:27:12.201Z,67.50
2019-02-10T04:31:15.606Z,67.88
2019-02-10T04:35:19.069Z,68.33
2019-02-10T04:39:22.543Z,68.65
2019-02-10T04:43:26.000Z,68.80
2019-02-10T04:47:29.464Z,68.86
2019-02-10T04:51:32.920Z,70.40
2019-02-10T04:55:36.381Z,68.52
2019-02-10T04:59:39.828Z,68.56
2019-02-10T05:03:43.288Z,68.79
2019-02-10T05:07:54.259Z,68.85
2019-02-10T05:11:51.889Z,68.87
2019-02-10T05:15:55.349Z,68.76
2019-02-10T05:19:58.809Z,68.64
2019-02-10T05:24:03.790Z,68.85
2019-02-10T05:28:07.404Z,69.16
2019-02-10T05:32:10.874Z,69.28
2019-02-10T05:36:14.311Z,69.49
2019-02-10T05:40:17.771Z,69.84
2019-02-10T05:44:21.218Z,70.24
2019-02-10T05:48:24.674Z,70.53
2019-02-10T05:52:28.119Z,70.52
2019-02-10T05:56:31.571Z,70.77
2019-02-10T06:00:35.029Z,71.05
2019-02-10T06:04:38.480Z,71.11
2019-02-10T06:08:41.951Z,71.22
2019-02-10T06:12:45.384Z,71.20
2019-02-10T06:16:48.843Z,71.00
2019-02-10T06:20:52.304Z,71.13
2019-02-10T06:24:55.769Z,71.15
2019-02-10T06:28:59.247Z,71.04
2019-02-10T06:33:02.696Z,71.05
2019-02-10T06:37:06.153Z,71.01
2019-02-10T06:41:09.616Z,71.02
2019-02-10T06:45:13.074Z,71.14
2019-02-10T06:49:17.504Z,71.08
2019-02-10T06:53:20.954Z,71.10
2019-02-10T06:57:24.395Z,71.13
2019-02-10T07:01:29.504Z,71.13
2019-02-10T07:05:32.960Z,71.08
2019-02-10T07:09:36.401Z,70.97
2019-02-10T07:13:39.850Z,71.00
2019-02-10T07:17:43.307Z,71.23
2019-02-10T07:21:46.760Z,71.27
2019-02-10T07:25:50.215Z,71.36
2019-02-10T07:29:53.659Z,71.30
2019-02-10T07:33:58.542Z,71.42
2019-02-10T07:38:02.257Z,71.38
2019-02-10T07:42:05.707Z,71.21
2019-02-10T07:46:09.172Z,70.97
2019-02-10T07:50:12.613Z,70.88
2019-02-10T07:54:16.082Z,70.65
2019-02-10T07:58:19.523Z,70.74
2019-02-10T08:02:22.972Z,70.83
2019-02-10T08:06:26.426Z,70.58
2019-02-10T08:10:29.875Z,70.70
2019-02-10T08:14:33.327Z,70.69
2019-02-10T08:18:36.780Z,70.55
2019-02-10T08:22:40.226Z,70.57
2019-02-10T08:26:43.691Z,70.47
2019-02-10T08:30:47.137Z,70.37
2019-02-10T08:34:50.591Z,70.37
2019-02-10T08:38:54.729Z,70.12
2019-02-10T08:42:58.171Z,70.13
2019-02-10T08:47:01.616Z,70.17
2019-02-10T08:51:05.056Z,70.02
2019-02-10T08:55:08.501Z,69.94
2019-02-10T08:59:11.961Z,69.99
2019-02-10T09:03:19.662Z,69.88
2019-02-10T09:07:20.556Z,69.94
2019-02-10T09:11:24.001Z,72.71
2019-02-10T09:15:27.459Z,65.64
2019-02-10T09:19:30.913Z,68.47
2019-02-10T09:23:34.366Z,63.18
2019-02-10T09:27:37.805Z,64.12
2019-02-10T09:31:41.255Z,65.82
2019-02-10T09:35:44.709Z,67.01
2019-02-10T09:39:48.171Z,67.77
2019-02-10T09:43:51.621Z,68.25
2019-02-10T09:47:55.068Z,68.54
2019-02-10T09:51:58.530Z,68.60
2019-02-10T09:56:01.979Z,68.73
2019-02-10T10:00:06.502Z,68.75
2019-02-10T10:04:09.971Z,68.68
2019-02-10T10:08:13.433Z,68.40
2019-02-10T10:12:16.883Z,68.81
2019-02-10T10:16:20.349Z,68.61
2019-02-10T10:20:23.794Z,68.75
2019-02-10T10:24:27.252Z,69.05
2019-02-10T10:28:30.693Z,68.83
2019-02-10T10:32:34.155Z,69.23
2019-02-10T10:36:37.609Z,69.29
2019-02-10T10:40:41.064Z,69.47
2019-02-10T10:44:44.517Z,69.50
2019-02-10T10:48:47.961Z,69.49
2019-02-10T10:52:51.425Z,69.56
2019-02-10T10:56:54.876Z,69.87
2019-02-10T11:00:58.326Z,70.29
2019-02-10T11:05:01.777Z,70.53
2019-02-10T11:09:05.220Z,70.51
2019-02-10T11:13:08.677Z,70.66
2019-02-10T11:17:12.133Z,70.65
2019-02-10T11:21:15.600Z,70.81
2019-02-10T11:25:19.046Z,70.82
2019-02-10T11:29:22.500Z,70.75
2019-02-10T11:33:25.939Z,70.86
2019-02-10T11:37:31.090Z,70.78
2019-02-10T11:41:34.621Z,70.99
2019-02-10T11:45:38.074Z,70.52
2019-02-10T11:49:41.516Z,70.45
2019-02-10T11:53:46.574Z,70.68
2019-02-10T11:57:50.305Z,70.69
2019-02-10T12:01:53.780Z,70.98
2019-02-10T12:05:57.236Z,70.13
2019-02-10T12:10:00.681Z,70.25
2019-02-10T12:14:04.142Z,69.75
2019-02-10T12:18:07.597Z,69.79
2019-02-10T12:22:11.045Z,69.20
2019-02-10T12:26:14.509Z,68.87
2019-02-10T12:30:17.953Z,68.88
2019-02-10T12:34:21.399Z,68.81
2019-02-10T12:38:24.857Z,68.06
2019-02-10T12:42:28.318Z,68.08
2019-02-10T12:46:31.771Z,70.78
2019-02-10T12:50:35.219Z,66.82
2019-02-10T12:54:38.690Z,60.62
2019-02-10T12:58:42.137Z,62.58
2019-02-10T13:02:45.597Z,63.91
2019-02-10T13:06:49.059Z,64.41
2019-02-10T13:10:53.575Z,64.53
2019-02-10T13:14:58.080Z,63.98
2019-02-10T13:19:01.540Z,63.44
2019-02-10T13:23:05.008Z,63.34
2019-02-10T13:27:08.462Z,62.94
2019-02-10T13:31:11.913Z,62.65
2019-02-10T13:35:15.372Z,62.39
2019-02-10T13:39:18.852Z,62.32
2019-02-10T13:43:22.327Z,61.53
2019-02-10T13:47:25.772Z,62.20
2019-02-10T13:51:29.246Z,62.15
2019-02-10T13:55:32.697Z,61.14
2019-02-10T13:59:36.177Z,61.25
2019-02-10T14:03:39.631Z,61.47
2019-02-10T14:07:43.086Z,61.60
2019-02-10T14:11:46.563Z,61.82
2019-02-10T14:15:49.995Z,62.51
2019-02-10T14:19:53.450Z,63.25
2019-02-10T14:23:56.912Z,63.65
2019-02-10T14:28:00.353Z,63.83
2019-02-10T14:32:03.806Z,63.63
2019-02-10T14:36:07.260Z,63.63
2019-02-10T14:40:10.714Z,62.79
2019-02-10T14:44:14.170Z,63.03
2019-02-10T14:48:17.612Z,63.43
2019-02-10T14:52:21.063Z,63.47
2019-02-10T14:56:24.521Z,63.22
2019-02-10T15:00:27.974Z,62.85
2019-02-10T15:04:31.432Z,62.14
2019-02-10T15:08:35.942Z,62.56
2019-02-10T15:12:39.406Z,62.44
2019-02-10T15:16:42.864Z,62.60
2019-02-10T15:20:46.313Z,62.54
2019-02-10T15:24:49.772Z,61.38
2019-02-10T15:28:53.222Z,60.76
2019-02-10T15:32:56.695Z,60.93
2019-02-10T15:37:00.151Z,60.65
2019-02-10T15:41:03.608Z,60.38
2019-02-10T15:45:07.062Z,62.63
2019-02-10T15:49:10.498Z,61.63
2019-02-10T15:53:13.962Z,61.35
2019-02-10T15:57:17.426Z,59.85
2019-02-10T16:01:20.889Z,59.11
2019-02-10T16:05:24.420Z,58.88
2019-02-10T16:09:27.869Z,57.45
2019-02-10T16:13:31.332Z,56.08
2019-02-10T16:17:34.792Z,56.08
2019-02-10T16:21:38.252Z,56.10
2019-02-10T16:25:41.707Z,54.25
2019-02-10T16:29:45.158Z,51.50
2019-02-10T16:33:48.622Z,53.26
2019-02-10T16:37:52.078Z,53.87
2019-02-10T16:41:55.536Z,55.11
2019-02-10T16:45:58.997Z,56.03
2019-02-10T16:50:02.448Z,56.71
2019-02-10T16:54:05.908Z,57.52
2019-02-10T16:58:10.428Z,57.47
2019-02-10T17:02:13.884Z,57.58
2019-02-10T17:06:17.339Z,57.99
2019-02-10T17:10:20.800Z,58.04
2019-02-10T17:14:24.247Z,58.35
2019-02-10T17:18:27.701Z,58.43
2019-02-10T17:22:31.155Z,58.81
2019-02-10T17:26:34.603Z,60.43
2019-02-10T17:30:38.050Z,61.59
2019-02-10T17:34:41.498Z,61.71
2019-02-10T17:38:44.962Z,62.15
2019-02-10T17:42:48.412Z,61.78
2019-02-10T17:46:51.867Z,61.95
2019-02-10T17:50:55.310Z,61.97
2019-02-10T17:54:58.766Z,62.57
2019-02-10T17:59:02.224Z,62.55
2019-02-10T18:03:05.680Z,62.58
2019-02-10T18:07:09.165Z,62.25
2019-02-10T18:11:12.609Z,61.55
2019-02-10T18:15:17.706Z,62.23
2019-02-10T18:19:25.732Z,62.67
2019-02-10T18:23:30.824Z,63.03
2019-02-10T18:27:35.922Z,62.20
2019-02-10T18:31:49.892Z,62.51
2019-02-10T18:35:57.654Z,62.50
2019-02-10T18:40:18.055Z,61.87
2019-02-10T18:44:32.145Z,61.82
2019-02-10T18:48:37.243Z,61.54
2019-02-10T18:52:42.328Z,61.21
2019-02-10T18:56:47.420Z,61.19
2019-02-10T19:00:55.229Z,61.69
2019-02-10T19:05:03.363Z,61.81
2019-02-10T19:09:20.445Z,61.93
2019-02-10T19:13:41.912Z,62.35
2019-02-10T19:17:55.858Z,61.89
2019-02-10T19:22:03.914Z,61.65
2019-02-10T19:26:09.011Z,61.33
2019-02-10T19:30:14.117Z,65.28
2019-02-10T19:34:21.896Z,62.03
2019-02-10T19:38:38.958Z,58.59
2019-02-10T19:42:46.845Z,54.69
2019-02-10T19:46:57.917Z,56.71
2019-02-10T19:51:21.048Z,57.31
2019-02-10T19:55:29.050Z,58.64
2019-02-10T19:59:34.125Z,59.07
2019-02-10T20:03:42.136Z,59.62
2019-02-10T20:07:53.088Z,59.95
2019-02-10T20:12:17.645Z,60.34
2019-02-10T20:16:25.552Z,60.48
2019-02-10T20:20:42.671Z,60.52
2019-02-10T20:24:50.731Z,60.36
2019-02-10T20:29:04.599Z,60.68
2019-02-10T20:33:21.709Z,60.95
2019-02-10T20:37:32.644Z,61.45
2019-02-10T20:41:40.461Z,61.82
2019-02-10T20:45:45.547Z,62.50
2019-02-10T20:49:50.661Z,62.61
2019-02-10T20:54:04.770Z,62.41
2019-02-10T20:58:36.652Z,61.68
2019-02-10T21:02:50.743Z,61.65
2019-02-10T21:07:12.238Z,61.03
2019-02-10T21:11:18.393Z,60.68
2019-02-10T21:15:39.713Z,60.74
2019-02-10T21:19:44.807Z,60.36
2019-02-10T21:24:04.962Z,60.47
2019-02-10T21:28:10.079Z,60.54
2019-02-10T21:32:33.226Z,60.88
2019-02-10T21:36:38.312Z,61.24
2019-02-10T21:40:46.213Z,61.69
2019-02-10T21:44:51.310Z,62.35
2019-02-10T21:48:56.434Z,62.72
2019-02-10T21:52:59.890Z,62.84
2019-02-10T21:57:03.337Z,62.64
2019-02-10T22:01:06.794Z,63.10
2019-02-10T22:05:11.235Z,63.13
2019-02-10T22:09:14.713Z,63.14
2019-02-10T22:13:18.129Z,63.34
2019-02-10T22:17:21.565Z,63.54
2019-02-10T22:21:25.025Z,63.34
2019-02-10T22:25:28.476Z,63.37
2019-02-10T22:29:31.932Z,63.60
2019-02-10T22:33:35.387Z,63.58
2019-02-10T22:37:38.836Z,62.42
2019-02-10T22:41:42.292Z,62.75
2019-02-10T22:45:45.750Z,62.80
2019-02-10T22:49:50.261Z,62.99
2019-02-10T22:53:53.714Z,63.32
2019-02-10T22:57:57.158Z,63.45
2019-02-10T23:02:00.616Z,63.47
2019-02-10T23:06:04.062Z,64.74
2019-02-10T23:10:07.515Z,63.67
2019-02-10T23:14:10.977Z,63.75
2019-02-10T23:18:14.414Z,63.88
2019-02-10T23:22:17.883Z,64.14
2019-02-10T23:26:21.336Z,64.51
2019-02-10T23:30:24.791Z,64.76
2019-02-10T23:34:28.229Z,64.95
2019-02-10T23:38:31.682Z,65.26
2019-02-10T23:42:35.138Z,64.99
2019-02-10T23:46:38.588Z,65.02
2019-02-10T23:50:42.037Z,64.80
2019-02-10T23:54:45.478Z,65.00
2019-02-10T23:58:48.936Z,65.06
